sensor_id;sensor_type;location;lat;lon;timestamp;P1;durP1;ratioP1;P2;durP2;ratioP2
51438;SDS011;38816;51.142;-0.974;2023-04-03T00:01:11;12.13;;;3.97;;
51438;SDS011;38816;51.142;-0.974;2023-04-03T00:03:37;21.60;;;5.32;;
51438;SDS011;38816;51.142;-0.974;2023-04-03T00:06:03;19.58;;;5.25;;
51438;SDS011;38816;51.142;-0.974;2023-04-03T00:08:29;12.48;;;5.00;;
51438;SDS011;38816;51.142;-0.974;2023-04-03T00:10:56;18.25;;;5.15;;
51438;SDS011;38816;51.142;-0.974;2023-04-03T00:13:21;13.57;;;4.60;;
51438;SDS011;38816;51.142;-0.974;2023-04-03T00:15:47;19.90;;;4.90;;
51438;SDS011;38816;51.142;-0.974;2023-04-03T00:18:13;26.00;;;5.22;;
51438;SDS011;38816;51.142;-0.974;2023-04-03T00:20:38;18.73;;;5.40;;
51438;SDS011;38816;51.142;-0.974;2023-04-03T00:23:04;15.80;;;5.32;;
51438;SDS011;38816;51.142;-0.974;2023-04-03T00:25:29;16.95;;;4.90;;
51438;SDS011;38816;51.142;-0.974;2023-04-03T00:27:55;21.98;;;5.43;;
51438;SDS011;38816;51.142;-0.974;2023-04-03T00:30:21;15.32;;;4.50;;
51438;SDS011;38816;51.142;-0.974;2023-04-03T00:32:50;25.13;;;5.32;;
51438;SDS011;38816;51.142;-0.974;2023-04-03T00:35:16;22.48;;;5.03;;
51438;SDS011;38816;51.142;-0.974;2023-04-03T00:37:43;17.50;;;4.25;;
51438;SDS011;38816;51.142;-0.974;2023-04-03T00:40:09;16.42;;;4.57;;
51438;SDS011;38816;51.142;-0.974;2023-04-03T00:42:37;13.13;;;4.18;;
51438;SDS011;38816;51.142;-0.974;2023-04-03T00:47:27;15.75;;;4.05;;
51438;SDS011;38816;51.142;-0.974;2023-04-03T00:49:55;18.42;;;4.15;;
51438;SDS011;38816;51.142;-0.974;2023-04-03T00:52:23;23.90;;;4.28;;
51438;SDS011;38816;51.142;-0.974;2023-04-03T00:54:52;17.50;;;4.15;;
51438;SDS011;38816;51.142;-0.974;2023-04-03T00:57:21;24.27;;;3.88;;
51438;SDS011;38816;51.142;-0.974;2023-04-03T00:59:51;11.23;;;3.40;;
51438;SDS011;38816;51.142;-0.974;2023-04-03T01:02:22;15.88;;;4.03;;
51438;SDS011;38816;51.142;-0.974;2023-04-03T01:04:48;19.58;;;4.35;;
51438;SDS011;38816;51.142;-0.974;2023-04-03T01:07:18;18.52;;;4.70;;
51438;SDS011;38816;51.142;-0.974;2023-04-03T01:09:47;16.83;;;4.20;;
51438;SDS011;38816;51.142;-0.974;2023-04-03T01:12:28;13.23;;;3.88;;
51438;SDS011;38816;51.142;-0.974;2023-04-03T01:14:57;19.27;;;3.97;;
51438;SDS011;38816;51.142;-0.974;2023-04-03T01:17:36;20.08;;;4.45;;
51438;SDS011;38816;51.142;-0.974;2023-04-03T01:25:28;12.35;;;3.63;;
51438;SDS011;38816;51.142;-0.974;2023-04-03T01:27:54;11.07;;;3.45;;
51438;SDS011;38816;51.142;-0.974;2023-04-03T01:30:20;17.63;;;3.70;;
51438;SDS011;38816;51.142;-0.974;2023-04-03T01:32:48;15.75;;;3.97;;
51438;SDS011;38816;51.142;-0.974;2023-04-03T01:35:14;14.65;;;3.60;;
51438;SDS011;38816;51.142;-0.974;2023-04-03T01:37:39;15.38;;;3.85;;
51438;SDS011;38816;51.142;-0.974;2023-04-03T01:40:05;18.13;;;3.70;;
51438;SDS011;38816;51.142;-0.974;2023-04-03T01:42:31;14.70;;;3.88;;
51438;SDS011;38816;51.142;-0.974;2023-04-03T01:44:57;20.92;;;3.42;;
51438;SDS011;38816;51.142;-0.974;2023-04-03T01:47:22;17.00;;;4.22;;
51438;SDS011;38816;51.142;-0.974;2023-04-03T01:49:48;19.45;;;3.90;;
51438;SDS011;38816;51.142;-0.974;2023-04-03T01:52:13;20.85;;;4.32;;
51438;SDS011;38816;51.142;-0.974;2023-04-03T01:54:38;18.05;;;4.80;;
51438;SDS011;38816;51.142;-0.974;2023-04-03T01:57:04;16.90;;;5.05;;
51438;SDS011;38816;51.142;-0.974;2023-04-03T01:59:29;19.67;;;5.72;;
51438;SDS011;38816;51.142;-0.974;2023-04-03T02:01:55;18.58;;;4.93;;
51438;SDS011;38816;51.142;-0.974;2023-04-03T02:04:20;22.95;;;5.38;;
51438;SDS011;38816;51.142;-0.974;2023-04-03T02:06:46;16.15;;;5.22;;
51438;SDS011;38816;51.142;-0.974;2023-04-03T02:09:11;21.00;;;5.32;;
51438;SDS011;38816;51.142;-0.974;2023-04-03T02:11:36;23.15;;;5.82;;
51438;SDS011;38816;51.142;-0.974;2023-04-03T02:14:02;21.50;;;5.25;;
51438;SDS011;38816;51.142;-0.974;2023-04-03T02:16:27;18.52;;;5.32;;
51438;SDS011;38816;51.142;-0.974;2023-04-03T02:18:53;21.60;;;4.97;;
51438;SDS011;38816;51.142;-0.974;2023-04-03T02:21:19;12.98;;;4.47;;
51438;SDS011;38816;51.142;-0.974;2023-04-03T02:23:45;12.57;;;4.47;;
51438;SDS011;38816;51.142;-0.974;2023-04-03T02:26:11;19.48;;;4.60;;
51438;SDS011;38816;51.142;-0.974;2023-04-03T02:28:38;20.75;;;5.05;;
51438;SDS011;38816;51.142;-0.974;2023-04-03T02:31:05;21.02;;;5.00;;
51438;SDS011;38816;51.142;-0.974;2023-04-03T02:33:31;10.88;;;5.13;;
51438;SDS011;38816;51.142;-0.974;2023-04-03T02:35:58;14.20;;;4.90;;
51438;SDS011;38816;51.142;-0.974;2023-04-03T02:38:24;14.45;;;5.60;;
51438;SDS011;38816;51.142;-0.974;2023-04-03T02:40:50;17.17;;;5.03;;
51438;SDS011;38816;51.142;-0.974;2023-04-03T02:43:17;16.45;;;4.97;;
51438;SDS011;38816;51.142;-0.974;2023-04-03T02:45:43;7.60;;;3.53;;
51438;SDS011;38816;51.142;-0.974;2023-04-03T02:48:08;12.57;;;4.13;;
51438;SDS011;38816;51.142;-0.974;2023-04-03T02:50:34;13.27;;;5.03;;
51438;SDS011;38816;51.142;-0.974;2023-04-03T02:53:00;11.80;;;4.35;;
51438;SDS011;38816;51.142;-0.974;2023-04-03T02:55:25;17.02;;;4.13;;
51438;SDS011;38816;51.142;-0.974;2023-04-03T02:57:51;13.00;;;4.20;;
51438;SDS011;38816;51.142;-0.974;2023-04-03T03:00:16;17.27;;;4.38;;
51438;SDS011;38816;51.142;-0.974;2023-04-03T03:02:42;10.65;;;3.97;;
51438;SDS011;38816;51.142;-0.974;2023-04-03T03:05:07;13.43;;;4.35;;
51438;SDS011;38816;51.142;-0.974;2023-04-03T03:07:33;13.10;;;4.60;;
51438;SDS011;38816;51.142;-0.974;2023-04-03T03:09:58;7.70;;;3.60;;
51438;SDS011;38816;51.142;-0.974;2023-04-03T03:12:24;12.35;;;4.03;;
51438;SDS011;38816;51.142;-0.974;2023-04-03T03:14:49;17.50;;;4.38;;
51438;SDS011;38816;51.142;-0.974;2023-04-03T03:17:15;17.40;;;4.10;;
51438;SDS011;38816;51.142;-0.974;2023-04-03T03:19:41;14.27;;;3.63;;
51438;SDS011;38816;51.142;-0.974;2023-04-03T03:22:06;14.07;;;3.97;;
51438;SDS011;38816;51.142;-0.974;2023-04-03T03:24:31;22.85;;;3.92;;
51438;SDS011;38816;51.142;-0.974;2023-04-03T03:26:57;16.75;;;3.33;;
51438;SDS011;38816;51.142;-0.974;2023-04-03T03:29:22;13.55;;;3.67;;
51438;SDS011;38816;51.142;-0.974;2023-04-03T03:31:48;10.85;;;3.38;;
51438;SDS011;38816;51.142;-0.974;2023-04-03T03:34:13;21.10;;;3.53;;
51438;SDS011;38816;51.142;-0.974;2023-04-03T03:36:39;11.63;;;3.33;;
51438;SDS011;38816;51.142;-0.974;2023-04-03T03:39:05;10.50;;;3.20;;
51438;SDS011;38816;51.142;-0.974;2023-04-03T03:41:31;20.23;;;4.30;;
51438;SDS011;38816;51.142;-0.974;2023-04-03T03:43:56;14.77;;;3.60;;
51438;SDS011;38816;51.142;-0.974;2023-04-03T03:46:22;14.88;;;3.08;;
51438;SDS011;38816;51.142;-0.974;2023-04-03T03:48:47;12.23;;;3.78;;
51438;SDS011;38816;51.142;-0.974;2023-04-03T03:51:13;10.85;;;3.50;;
51438;SDS011;38816;51.142;-0.974;2023-04-03T03:53:38;15.90;;;3.33;;
51438;SDS011;38816;51.142;-0.974;2023-04-03T03:56:04;13.95;;;3.70;;
51438;SDS011;38816;51.142;-0.974;2023-04-03T03:58:30;15.93;;;3.28;;
51438;SDS011;38816;51.142;-0.974;2023-04-03T04:04:04;9.57;;;3.10;;
51438;SDS011;38816;51.142;-0.974;2023-04-03T04:06:30;13.38;;;2.80;;
51438;SDS011;38816;51.142;-0.974;2023-04-03T04:08:55;19.98;;;3.28;;
51438;SDS011;38816;51.142;-0.974;2023-04-03T04:11:21;18.63;;;3.17;;
51438;SDS011;38816;51.142;-0.974;2023-04-03T04:13:46;16.20;;;3.50;;
51438;SDS011;38816;51.142;-0.974;2023-04-03T04:16:12;6.78;;;2.92;;
51438;SDS011;38816;51.142;-0.974;2023-04-03T04:18:37;19.73;;;3.80;;
51438;SDS011;38816;51.142;-0.974;2023-04-03T04:21:03;10.55;;;3.70;;
51438;SDS011;38816;51.142;-0.974;2023-04-03T04:23:28;14.23;;;4.35;;
51438;SDS011;38816;51.142;-0.974;2023-04-03T04:25:53;12.95;;;3.47;;
51438;SDS011;38816;51.142;-0.974;2023-04-03T04:28:19;16.50;;;3.95;;
51438;SDS011;38816;51.142;-0.974;2023-04-03T04:30:44;12.45;;;3.90;;
51438;SDS011;38816;51.142;-0.974;2023-04-03T04:33:10;12.20;;;4.03;;
51438;SDS011;38816;51.142;-0.974;2023-04-03T04:35:36;19.67;;;4.97;;
51438;SDS011;38816;51.142;-0.974;2023-04-03T04:38:01;22.80;;;5.32;;
51438;SDS011;38816;51.142;-0.974;2023-04-03T04:40:27;15.98;;;4.72;;
51438;SDS011;38816;51.142;-0.974;2023-04-03T04:42:54;30.08;;;5.97;;
51438;SDS011;38816;51.142;-0.974;2023-04-03T04:45:19;10.70;;;3.78;;
51438;SDS011;38816;51.142;-0.974;2023-04-03T04:47:45;9.85;;;4.10;;
51438;SDS011;38816;51.142;-0.974;2023-04-03T04:50:10;13.10;;;4.15;;
51438;SDS011;38816;51.142;-0.974;2023-04-03T04:52:36;17.48;;;4.75;;
51438;SDS011;38816;51.142;-0.974;2023-04-03T04:55:02;19.75;;;5.82;;
51438;SDS011;38816;51.142;-0.974;2023-04-03T04:57:28;18.45;;;4.97;;
51438;SDS011;38816;51.142;-0.974;2023-04-03T04:59:53;13.88;;;4.55;;
51438;SDS011;38816;51.142;-0.974;2023-04-03T05:02:18;14.75;;;4.40;;
51438;SDS011;38816;51.142;-0.974;2023-04-03T05:04:44;20.23;;;4.90;;
51438;SDS011;38816;51.142;-0.974;2023-04-03T05:07:09;8.82;;;3.92;;
51438;SDS011;38816;51.142;-0.974;2023-04-03T05:09:35;14.57;;;4.60;;
51438;SDS011;38816;51.142;-0.974;2023-04-03T05:12:00;15.55;;;4.57;;
51438;SDS011;38816;51.142;-0.974;2023-04-03T05:14:27;14.77;;;4.38;;
51438;SDS011;38816;51.142;-0.974;2023-04-03T05:16:53;22.95;;;4.65;;
51438;SDS011;38816;51.142;-0.974;2023-04-03T05:19:19;14.48;;;4.47;;
51438;SDS011;38816;51.142;-0.974;2023-04-03T05:21:45;9.95;;;4.30;;
51438;SDS011;38816;51.142;-0.974;2023-04-03T05:24:11;17.05;;;4.55;;
51438;SDS011;38816;51.142;-0.974;2023-04-03T05:26:36;22.90;;;4.55;;
51438;SDS011;38816;51.142;-0.974;2023-04-03T05:29:02;18.52;;;4.05;;
51438;SDS011;38816;51.142;-0.974;2023-04-03T05:31:28;15.02;;;4.93;;
51438;SDS011;38816;51.142;-0.974;2023-04-03T05:33:54;14.63;;;5.32;;
51438;SDS011;38816;51.142;-0.974;2023-04-03T05:36:20;23.00;;;5.18;;
51438;SDS011;38816;51.142;-0.974;2023-04-03T05:38:45;21.45;;;6.10;;
51438;SDS011;38816;51.142;-0.974;2023-04-03T05:41:11;14.98;;;5.00;;
51438;SDS011;38816;51.142;-0.974;2023-04-03T05:43:39;23.10;;;5.20;;
51438;SDS011;38816;51.142;-0.974;2023-04-03T05:46:14;15.43;;;5.72;;
51438;SDS011;38816;51.142;-0.974;2023-04-03T05:48:42;18.30;;;4.88;;
51438;SDS011;38816;51.142;-0.974;2023-04-03T05:51:12;16.65;;;4.82;;
51438;SDS011;38816;51.142;-0.974;2023-04-03T05:53:40;20.38;;;5.40;;
51438;SDS011;38816;51.142;-0.974;2023-04-03T05:56:06;25.20;;;5.05;;
51438;SDS011;38816;51.142;-0.974;2023-04-03T05:58:31;24.67;;;5.35;;
51438;SDS011;38816;51.142;-0.974;2023-04-03T06:00:57;21.65;;;5.13;;
51438;SDS011;38816;51.142;-0.974;2023-04-03T06:03:22;10.85;;;4.50;;
51438;SDS011;38816;51.142;-0.974;2023-04-03T06:05:48;17.23;;;4.70;;
51438;SDS011;38816;51.142;-0.974;2023-04-03T06:08:13;21.17;;;5.43;;
51438;SDS011;38816;51.142;-0.974;2023-04-03T06:10:39;26.13;;;5.88;;
51438;SDS011;38816;51.142;-0.974;2023-04-03T06:13:05;17.83;;;5.45;;
51438;SDS011;38816;51.142;-0.974;2023-04-03T06:15:31;17.70;;;5.03;;
51438;SDS011;38816;51.142;-0.974;2023-04-03T06:17:56;19.77;;;5.35;;
51438;SDS011;38816;51.142;-0.974;2023-04-03T06:20:22;17.45;;;5.80;;
51438;SDS011;38816;51.142;-0.974;2023-04-03T06:22:47;20.35;;;5.43;;
51438;SDS011;38816;51.142;-0.974;2023-04-03T06:25:13;14.35;;;5.28;;
51438;SDS011;38816;51.142;-0.974;2023-04-03T06:27:39;18.15;;;5.43;;
51438;SDS011;38816;51.142;-0.974;2023-04-03T06:30:06;16.75;;;5.53;;
51438;SDS011;38816;51.142;-0.974;2023-04-03T06:32:32;18.45;;;5.47;;
51438;SDS011;38816;51.142;-0.974;2023-04-03T06:34:58;18.67;;;5.47;;
51438;SDS011;38816;51.142;-0.974;2023-04-03T06:37:23;18.13;;;5.20;;
51438;SDS011;38816;51.142;-0.974;2023-04-03T06:39:51;14.55;;;5.32;;
51438;SDS011;38816;51.142;-0.974;2023-04-03T06:42:17;31.55;;;5.75;;
51438;SDS011;38816;51.142;-0.974;2023-04-03T06:44:42;26.92;;;4.65;;
51438;SDS011;38816;51.142;-0.974;2023-04-03T06:47:09;20.85;;;5.28;;
51438;SDS011;38816;51.142;-0.974;2023-04-03T06:49:36;11.88;;;5.15;;
51438;SDS011;38816;51.142;-0.974;2023-04-03T06:52:02;19.30;;;5.22;;
51438;SDS011;38816;51.142;-0.974;2023-04-03T06:54:28;17.83;;;4.70;;
51438;SDS011;38816;51.142;-0.974;2023-04-03T06:56:53;14.13;;;5.00;;
51438;SDS011;38816;51.142;-0.974;2023-04-03T06:59:19;14.43;;;4.85;;
51438;SDS011;38816;51.142;-0.974;2023-04-03T07:01:44;24.00;;;4.78;;
51438;SDS011;38816;51.142;-0.974;2023-04-03T07:04:10;27.35;;;5.72;;
51438;SDS011;38816;51.142;-0.974;2023-04-03T07:06:35;25.45;;;5.95;;
51438;SDS011;38816;51.142;-0.974;2023-04-03T07:09:01;24.00;;;4.90;;
51438;SDS011;38816;51.142;-0.974;2023-04-03T07:11:27;21.00;;;5.72;;
51438;SDS011;38816;51.142;-0.974;2023-04-03T07:13:52;20.60;;;4.68;;
51438;SDS011;38816;51.142;-0.974;2023-04-03T07:16:18;15.35;;;4.43;;
51438;SDS011;38816;51.142;-0.974;2023-04-03T07:18:44;18.33;;;4.97;;
51438;SDS011;38816;51.142;-0.974;2023-04-03T07:21:10;19.20;;;4.93;;
51438;SDS011;38816;51.142;-0.974;2023-04-03T07:23:36;21.48;;;5.85;;
51438;SDS011;38816;51.142;-0.974;2023-04-03T07:26:02;22.30;;;4.82;;
51438;SDS011;38816;51.142;-0.974;2023-04-03T07:28:27;21.85;;;4.28;;
51438;SDS011;38816;51.142;-0.974;2023-04-03T07:30:54;20.92;;;4.63;;
51438;SDS011;38816;51.142;-0.974;2023-04-03T07:33:25;15.23;;;4.32;;
51438;SDS011;38816;51.142;-0.974;2023-04-03T07:35:51;16.85;;;3.67;;
51438;SDS011;38816;51.142;-0.974;2023-04-03T07:38:17;15.05;;;3.55;;
51438;SDS011;38816;51.142;-0.974;2023-04-03T07:40:49;18.27;;;3.42;;
51438;SDS011;38816;51.142;-0.974;2023-04-03T07:43:17;15.10;;;3.78;;
51438;SDS011;38816;51.142;-0.974;2023-04-03T07:45:43;22.38;;;4.35;;
51438;SDS011;38816;51.142;-0.974;2023-04-03T07:48:09;15.82;;;4.18;;
51438;SDS011;38816;51.142;-0.974;2023-04-03T07:50:35;14.65;;;4.25;;
51438;SDS011;38816;51.142;-0.974;2023-04-03T07:53:01;16.55;;;4.45;;
51438;SDS011;38816;51.142;-0.974;2023-04-03T07:55:27;23.40;;;4.47;;
51438;SDS011;38816;51.142;-0.974;2023-04-03T07:57:53;19.00;;;4.18;;
51438;SDS011;38816;51.142;-0.974;2023-04-03T08:00:19;16.30;;;4.22;;
51438;SDS011;38816;51.142;-0.974;2023-04-03T08:02:44;18.75;;;3.95;;
51438;SDS011;38816;51.142;-0.974;2023-04-03T08:05:15;13.52;;;4.07;;
51438;SDS011;38816;51.142;-0.974;2023-04-03T08:07:41;20.88;;;4.60;;
51438;SDS011;38816;51.142;-0.974;2023-04-03T08:10:07;12.15;;;4.30;;
51438;SDS011;38816;51.142;-0.974;2023-04-03T08:12:33;11.50;;;4.43;;
51438;SDS011;38816;51.142;-0.974;2023-04-03T08:14:59;16.75;;;3.83;;
51438;SDS011;38816;51.142;-0.974;2023-04-03T08:17:26;12.55;;;4.00;;
51438;SDS011;38816;51.142;-0.974;2023-04-03T08:19:51;11.77;;;3.78;;
51438;SDS011;38816;51.142;-0.974;2023-04-03T08:22:17;10.13;;;4.00;;
51438;SDS011;38816;51.142;-0.974;2023-04-03T08:24:42;13.18;;;4.13;;
51438;SDS011;38816;51.142;-0.974;2023-04-03T08:27:07;18.35;;;4.80;;
51438;SDS011;38816;51.142;-0.974;2023-04-03T08:29:33;11.43;;;4.32;;
51438;SDS011;38816;51.142;-0.974;2023-04-03T08:31:58;16.48;;;4.05;;
51438;SDS011;38816;51.142;-0.974;2023-04-03T08:34:24;12.90;;;4.38;;
51438;SDS011;38816;51.142;-0.974;2023-04-03T08:36:49;11.38;;;3.85;;
51438;SDS011;38816;51.142;-0.974;2023-04-03T08:39:14;16.52;;;4.82;;
51438;SDS011;38816;51.142;-0.974;2023-04-03T08:41:44;12.18;;;3.67;;
51438;SDS011;38816;51.142;-0.974;2023-04-03T08:49:45;12.55;;;4.10;;
51438;SDS011;38816;51.142;-0.974;2023-04-03T08:52:58;21.15;;;3.95;;
51438;SDS011;38816;51.142;-0.974;2023-04-03T08:55:20;17.90;;;4.15;;
51438;SDS011;38816;51.142;-0.974;2023-04-03T08:57:47;14.98;;;3.30;;
51438;SDS011;38816;51.142;-0.974;2023-04-03T09:00:20;11.27;;;4.13;;
51438;SDS011;38816;51.142;-0.974;2023-04-03T09:02:48;10.00;;;3.55;;
51438;SDS011;38816;51.142;-0.974;2023-04-03T09:05:19;11.98;;;4.20;;
51438;SDS011;38816;51.142;-0.974;2023-04-03T09:10:23;12.55;;;3.78;;
51438;SDS011;38816;51.142;-0.974;2023-04-03T09:12:54;11.98;;;3.85;;
51438;SDS011;38816;51.142;-0.974;2023-04-03T09:15:26;10.85;;;3.95;;
51438;SDS011;38816;51.142;-0.974;2023-04-03T09:20:31;12.52;;;3.75;;
51438;SDS011;38816;51.142;-0.974;2023-04-03T09:23:17;15.38;;;4.28;;
51438;SDS011;38816;51.142;-0.974;2023-04-03T09:28:21;22.00;;;4.35;;
51438;SDS011;38816;51.142;-0.974;2023-04-03T09:30:47;12.32;;;3.88;;
51438;SDS011;38816;51.142;-0.974;2023-04-03T09:33:12;13.10;;;3.88;;
51438;SDS011;38816;51.142;-0.974;2023-04-03T09:35:39;14.43;;;3.85;;
51438;SDS011;38816;51.142;-0.974;2023-04-03T09:40:36;10.98;;;4.55;;
51438;SDS011;38816;51.142;-0.974;2023-04-03T09:45:41;13.15;;;5.68;;
51438;SDS011;38816;51.142;-0.974;2023-04-03T09:56:18;21.30;;;6.45;;
51438;SDS011;38816;51.142;-0.974;2023-04-03T10:01:29;10.85;;;5.70;;
51438;SDS011;38816;51.142;-0.974;2023-04-03T10:06:42;9.35;;;5.68;;
51438;SDS011;38816;51.142;-0.974;2023-04-03T10:09:22;17.38;;;6.55;;
51438;SDS011;38816;51.142;-0.974;2023-04-03T10:12:05;14.35;;;6.18;;
51438;SDS011;38816;51.142;-0.974;2023-04-03T10:14:34;10.18;;;5.63;;
51438;SDS011;38816;51.142;-0.974;2023-04-03T10:19:53;11.25;;;6.22;;
51438;SDS011;38816;51.142;-0.974;2023-04-03T10:46:26;10.60;;;4.85;;
51438;SDS011;38816;51.142;-0.974;2023-04-03T10:49:01;11.88;;;5.15;;
51438;SDS011;38816;51.142;-0.974;2023-04-03T10:56:48;12.43;;;5.47;;
51438;SDS011;38816;51.142;-0.974;2023-04-03T11:01:56;11.88;;;5.60;;
51438;SDS011;38816;51.142;-0.974;2023-04-03T11:04:26;13.40;;;5.95;;
51438;SDS011;38816;51.142;-0.974;2023-04-03T11:07:00;14.60;;;5.75;;
51438;SDS011;38816;51.142;-0.974;2023-04-03T11:09:35;17.20;;;6.55;;
51438;SDS011;38816;51.142;-0.974;2023-04-03T11:12:17;12.98;;;5.68;;
51438;SDS011;38816;51.142;-0.974;2023-04-03T11:14:44;10.55;;;5.50;;
51438;SDS011;38816;51.142;-0.974;2023-04-03T11:17:19;11.98;;;5.28;;
51438;SDS011;38816;51.142;-0.974;2023-04-03T11:22:31;10.57;;;4.90;;
51438;SDS011;38816;51.142;-0.974;2023-04-03T11:25:04;8.73;;;4.95;;
51438;SDS011;38816;51.142;-0.974;2023-04-03T11:27:38;7.93;;;5.18;;
51438;SDS011;38816;51.142;-0.974;2023-04-03T11:35:26;17.55;;;5.38;;
51438;SDS011;38816;51.142;-0.974;2023-04-03T11:37:53;8.80;;;4.93;;
51438;SDS011;38816;51.142;-0.974;2023-04-03T11:40:26;10.98;;;5.60;;
51438;SDS011;38816;51.142;-0.974;2023-04-03T11:48:02;7.97;;;3.97;;
51438;SDS011;38816;51.142;-0.974;2023-04-03T11:50:48;17.40;;;5.07;;
51438;SDS011;38816;51.142;-0.974;2023-04-03T11:58:19;9.60;;;3.78;;
51438;SDS011;38816;51.142;-0.974;2023-04-03T12:16:00;12.65;;;4.13;;
51438;SDS011;38816;51.142;-0.974;2023-04-03T12:21:22;11.07;;;4.50;;
51438;SDS011;38816;51.142;-0.974;2023-04-03T12:42:23;10.07;;;5.15;;
51438;SDS011;38816;51.142;-0.974;2023-04-03T12:45:21;12.23;;;5.43;;
51438;SDS011;38816;51.142;-0.974;2023-04-03T12:47:49;7.65;;;4.15;;
51438;SDS011;38816;51.142;-0.974;2023-04-03T12:50:30;6.65;;;4.18;;
51438;SDS011;38816;51.142;-0.974;2023-04-03T12:55:26;9.73;;;4.10;;
51438;SDS011;38816;51.142;-0.974;2023-04-03T12:57:52;7.88;;;3.75;;
51438;SDS011;38816;51.142;-0.974;2023-04-03T13:02:46;7.55;;;3.28;;
51438;SDS011;38816;51.142;-0.974;2023-04-03T13:05:16;9.18;;;3.47;;
51438;SDS011;38816;51.142;-0.974;2023-04-03T13:07:47;6.93;;;3.45;;
51438;SDS011;38816;51.142;-0.974;2023-04-03T13:10:16;8.85;;;2.90;;
51438;SDS011;38816;51.142;-0.974;2023-04-03T13:12:49;10.10;;;3.38;;
51438;SDS011;38816;51.142;-0.974;2023-04-03T13:15:30;8.80;;;3.08;;
51438;SDS011;38816;51.142;-0.974;2023-04-03T13:18:20;8.10;;;3.10;;
51438;SDS011;38816;51.142;-0.974;2023-04-03T13:20:47;9.13;;;3.60;;
51438;SDS011;38816;51.142;-0.974;2023-04-03T13:23:14;6.03;;;3.30;;
51438;SDS011;38816;51.142;-0.974;2023-04-03T13:25:43;5.60;;;2.70;;
51438;SDS011;38816;51.142;-0.974;2023-04-03T13:28:10;11.43;;;3.55;;
51438;SDS011;38816;51.142;-0.974;2023-04-03T13:30:40;9.02;;;2.90;;
51438;SDS011;38816;51.142;-0.974;2023-04-03T13:33:31;5.78;;;3.20;;
51438;SDS011;38816;51.142;-0.974;2023-04-03T13:38:31;8.43;;;3.08;;
51438;SDS011;38816;51.142;-0.974;2023-04-03T13:40:59;6.00;;;2.75;;
51438;SDS011;38816;51.142;-0.974;2023-04-03T13:43:28;10.20;;;3.13;;
51438;SDS011;38816;51.142;-0.974;2023-04-03T13:46:41;11.55;;;3.10;;
51438;SDS011;38816;51.142;-0.974;2023-04-03T13:48:46;9.27;;;3.25;;
51438;SDS011;38816;51.142;-0.974;2023-04-03T13:53:44;6.30;;;2.40;;
51438;SDS011;38816;51.142;-0.974;2023-04-03T13:56:19;5.72;;;2.53;;
51438;SDS011;38816;51.142;-0.974;2023-04-03T13:58:54;8.35;;;2.75;;
51438;SDS011;38816;51.142;-0.974;2023-04-03T14:01:20;7.75;;;2.97;;
51438;SDS011;38816;51.142;-0.974;2023-04-03T14:06:26;12.43;;;2.80;;
51438;SDS011;38816;51.142;-0.974;2023-04-03T14:08:52;5.75;;;2.42;;
51438;SDS011;38816;51.142;-0.974;2023-04-03T14:11:19;7.07;;;2.60;;
51438;SDS011;38816;51.142;-0.974;2023-04-03T14:13:52;8.15;;;2.97;;
51438;SDS011;38816;51.142;-0.974;2023-04-03T14:16:19;10.23;;;2.70;;
51438;SDS011;38816;51.142;-0.974;2023-04-03T14:18:52;6.35;;;2.50;;
51438;SDS011;38816;51.142;-0.974;2023-04-03T14:21:18;6.05;;;2.50;;
51438;SDS011;38816;51.142;-0.974;2023-04-03T14:23:44;5.78;;;2.60;;
51438;SDS011;38816;51.142;-0.974;2023-04-03T14:26:14;9.00;;;2.55;;
51438;SDS011;38816;51.142;-0.974;2023-04-03T14:28:43;3.40;;;2.03;;
51438;SDS011;38816;51.142;-0.974;2023-04-03T14:31:13;7.30;;;2.72;;
51438;SDS011;38816;51.142;-0.974;2023-04-03T14:33:41;6.78;;;2.50;;
51438;SDS011;38816;51.142;-0.974;2023-04-03T14:36:22;3.88;;;2.08;;
51438;SDS011;38816;51.142;-0.974;2023-04-03T14:38:51;5.13;;;2.38;;
51438;SDS011;38816;51.142;-0.974;2023-04-03T14:41:18;7.82;;;2.58;;
51438;SDS011;38816;51.142;-0.974;2023-04-03T14:43:45;5.20;;;2.55;;
51438;SDS011;38816;51.142;-0.974;2023-04-03T14:46:13;6.03;;;2.30;;
51438;SDS011;38816;51.142;-0.974;2023-04-03T14:48:41;7.97;;;2.65;;
51438;SDS011;38816;51.142;-0.974;2023-04-03T14:51:08;4.93;;;2.20;;
51438;SDS011;38816;51.142;-0.974;2023-04-03T14:53:36;4.72;;;2.28;;
51438;SDS011;38816;51.142;-0.974;2023-04-03T14:56:04;7.68;;;2.20;;
51438;SDS011;38816;51.142;-0.974;2023-04-03T14:58:35;6.43;;;2.47;;
51438;SDS011;38816;51.142;-0.974;2023-04-03T15:01:02;4.88;;;2.28;;
51438;SDS011;38816;51.142;-0.974;2023-04-03T15:03:27;9.18;;;2.55;;
51438;SDS011;38816;51.142;-0.974;2023-04-03T15:05:53;7.07;;;2.22;;
51438;SDS011;38816;51.142;-0.974;2023-04-03T15:08:22;7.65;;;2.55;;
51438;SDS011;38816;51.142;-0.974;2023-04-03T15:10:50;6.38;;;2.50;;
51438;SDS011;38816;51.142;-0.974;2023-04-03T15:13:17;3.95;;;2.20;;
51438;SDS011;38816;51.142;-0.974;2023-04-03T15:15:43;5.22;;;2.33;;
51438;SDS011;38816;51.142;-0.974;2023-04-03T15:18:18;7.63;;;2.55;;
51438;SDS011;38816;51.142;-0.974;2023-04-03T15:20:45;8.55;;;2.40;;
51438;SDS011;38816;51.142;-0.974;2023-04-03T15:23:14;10.82;;;2.67;;
51438;SDS011;38816;51.142;-0.974;2023-04-03T15:25:47;6.68;;;2.00;;
51438;SDS011;38816;51.142;-0.974;2023-04-03T15:28:22;6.22;;;2.38;;
51438;SDS011;38816;51.142;-0.974;2023-04-03T15:30:52;7.95;;;2.45;;
51438;SDS011;38816;51.142;-0.974;2023-04-03T15:33:18;7.05;;;2.10;;
51438;SDS011;38816;51.142;-0.974;2023-04-03T15:35:43;6.80;;;2.28;;
51438;SDS011;38816;51.142;-0.974;2023-04-03T15:38:09;4.88;;;2.00;;
51438;SDS011;38816;51.142;-0.974;2023-04-03T15:40:35;7.47;;;2.40;;
51438;SDS011;38816;51.142;-0.974;2023-04-03T15:43:01;6.50;;;2.13;;
51438;SDS011;38816;51.142;-0.974;2023-04-03T15:45:28;4.38;;;1.83;;
51438;SDS011;38816;51.142;-0.974;2023-04-03T15:47:55;5.40;;;2.10;;
51438;SDS011;38816;51.142;-0.974;2023-04-03T15:50:21;5.63;;;2.55;;
51438;SDS011;38816;51.142;-0.974;2023-04-03T15:52:48;3.70;;;1.88;;
51438;SDS011;38816;51.142;-0.974;2023-04-03T15:55:19;4.90;;;2.38;;
51438;SDS011;38816;51.142;-0.974;2023-04-03T15:57:47;13.07;;;2.28;;
51438;SDS011;38816;51.142;-0.974;2023-04-03T16:00:13;6.07;;;2.25;;
51438;SDS011;38816;51.142;-0.974;2023-04-03T16:02:39;5.85;;;2.55;;
51438;SDS011;38816;51.142;-0.974;2023-04-03T16:05:06;8.48;;;2.67;;
51438;SDS011;38816;51.142;-0.974;2023-04-03T16:07:32;8.23;;;2.17;;
51438;SDS011;38816;51.142;-0.974;2023-04-03T16:09:57;7.30;;;2.50;;
51438;SDS011;38816;51.142;-0.974;2023-04-03T16:12:23;8.38;;;2.22;;
51438;SDS011;38816;51.142;-0.974;2023-04-03T16:14:48;8.77;;;2.10;;
51438;SDS011;38816;51.142;-0.974;2023-04-03T16:17:13;8.20;;;2.40;;
51438;SDS011;38816;51.142;-0.974;2023-04-03T16:19:39;6.25;;;2.10;;
51438;SDS011;38816;51.142;-0.974;2023-04-03T16:22:04;7.53;;;2.40;;
51438;SDS011;38816;51.142;-0.974;2023-04-03T16:24:30;5.55;;;2.38;;
51438;SDS011;38816;51.142;-0.974;2023-04-03T16:26:57;8.60;;;2.42;;
51438;SDS011;38816;51.142;-0.974;2023-04-03T16:29:22;9.55;;;4.10;;
51438;SDS011;38816;51.142;-0.974;2023-04-03T16:31:47;6.55;;;3.47;;
51438;SDS011;38816;51.142;-0.974;2023-04-03T16:34:13;7.32;;;3.95;;
51438;SDS011;38816;51.142;-0.974;2023-04-03T16:36:38;7.72;;;2.50;;
51438;SDS011;38816;51.142;-0.974;2023-04-03T16:39:04;4.03;;;2.22;;
51438;SDS011;38816;51.142;-0.974;2023-04-03T16:41:29;4.80;;;2.25;;
51438;SDS011;38816;51.142;-0.974;2023-04-03T16:43:55;10.98;;;2.50;;
51438;SDS011;38816;51.142;-0.974;2023-04-03T16:46:20;7.68;;;2.38;;
51438;SDS011;38816;51.142;-0.974;2023-04-03T16:48:45;10.00;;;2.95;;
51438;SDS011;38816;51.142;-0.974;2023-04-03T16:51:12;15.10;;;3.03;;
51438;SDS011;38816;51.142;-0.974;2023-04-03T16:53:38;6.88;;;2.53;;